createdAt,value
2018-12-07T00:01:14.544Z,10.88
2018-12-07T00:03:44.150Z,10.87
2018-12-07T00:06:13.376Z,10.83
2018-12-07T00:08:42.668Z,10.88
2018-12-07T00:11:11.820Z,10.96
2018-12-07T00:13:41.056Z,10.96
2018-12-07T00:16:10.416Z,11.04
2018-12-07T00:18:39.550Z,10.98
2018-12-07T00:21:08.773Z,10.87
2018-12-07T00:23:38.000Z,10.76
2018-12-07T00:26:07.140Z,10.78
2018-12-07T00:28:36.807Z,10.76
2018-12-07T00:31:06.113Z,10.71
2018-12-07T00:33:35.305Z,10.68
2018-12-07T00:36:04.600Z,10.67
2018-12-07T00:38:33.704Z,10.81
2018-12-07T00:41:03.835Z,10.84
2018-12-07T00:43:32.963Z,10.86
2018-12-07T00:46:02.794Z,10.90
2018-12-07T00:48:31.923Z,10.92
2018-12-07T00:51:01.094Z,10.93
2018-12-07T00:53:30.920Z,10.96
2018-12-07T00:56:00.181Z,10.92
2018-12-07T00:58:29.712Z,10.84
2018-12-07T01:00:59.035Z,10.99
2018-12-07T01:03:28.376Z,11.03
2018-12-07T01:05:57.612Z,11.08
2018-12-07T01:08:26.937Z,11.14
2018-12-07T01:10:56.305Z,11.06
2018-12-07T01:13:25.449Z,11.07
2018-12-07T01:15:54.641Z,11.08
2018-12-07T01:18:24.244Z,11.10
2018-12-07T01:20:53.408Z,11.11
2018-12-07T01:23:22.601Z,11.15
2018-12-07T01:25:51.741Z,11.18
2018-12-07T01:28:20.867Z,11.17
2018-12-07T01:30:50.081Z,11.14
2018-12-07T01:33:19.739Z,11.04
2018-12-07T01:35:48.946Z,11.03
2018-12-07T01:38:18.084Z,11.01
2018-12-07T01:40:47.292Z,11.08
2018-12-07T01:43:16.554Z,11.07
2018-12-07T01:45:45.668Z,11.06
2018-12-07T01:48:15.197Z,11.16
2018-12-07T01:50:44.420Z,11.10
2018-12-07T01:53:13.540Z,11.02
2018-12-07T01:55:42.855Z,11.11
2018-12-07T01:58:12.336Z,11.02
2018-12-07T02:00:41.620Z,11.05
2018-12-07T02:03:10.862Z,11.19
2018-12-07T02:05:40.088Z,11.30
2018-12-07T02:08:09.184Z,11.25
2018-12-07T02:10:38.458Z,11.30
2018-12-07T02:13:07.647Z,11.28
2018-12-07T02:15:36.948Z,11.35
2018-12-07T02:18:06.717Z,11.38
2018-12-07T02:20:36.451Z,11.41
2018-12-07T02:23:06.361Z,11.38
2018-12-07T02:25:35.633Z,11.36
2018-12-07T02:28:04.807Z,11.34
2018-12-07T02:30:34.165Z,11.34
2018-12-07T02:33:03.424Z,11.18
2018-12-07T02:35:32.592Z,11.25
2018-12-07T02:38:01.790Z,11.27
2018-12-07T02:40:31.080Z,11.24
2018-12-07T02:43:00.188Z,11.31
2018-12-07T02:45:29.396Z,11.37
2018-12-07T02:47:59.156Z,11.31
2018-12-07T02:50:28.390Z,11.33
2018-12-07T02:52:57.713Z,11.33
2018-12-07T02:55:27.406Z,11.37
2018-12-07T02:57:56.527Z,11.40
2018-12-07T03:00:26.303Z,11.34
2018-12-07T03:02:55.433Z,11.30
2018-12-07T03:05:24.645Z,11.28
2018-12-07T03:07:54.262Z,11.37
2018-12-07T03:10:23.417Z,11.37
2018-12-07T03:12:52.698Z,11.36
2018-12-07T03:15:21.819Z,11.40
2018-12-07T03:17:51.568Z,11.43
2018-12-07T03:20:20.730Z,11.46
2018-12-07T03:22:49.844Z,11.46
2018-12-07T03:25:19.061Z,11.52
2018-12-07T03:27:48.193Z,11.36
2018-12-07T03:30:17.338Z,11.37
2018-12-07T03:32:46.701Z,11.44
2018-12-07T03:35:16.066Z,11.43
2018-12-07T03:37:45.353Z,11.38
2018-12-07T03:40:15.300Z,11.35
2018-12-07T03:42:44.601Z,11.22
2018-12-07T03:45:13.810Z,11.34
2018-12-07T03:47:42.990Z,11.33
2018-12-07T03:50:12.130Z,11.40
2018-12-07T03:52:41.410Z,11.39
2018-12-07T03:55:10.612Z,11.44
2018-12-07T03:57:40.214Z,11.48
2018-12-07T04:00:09.705Z,11.52
2018-12-07T04:02:39.003Z,11.35
2018-12-07T04:05:08.240Z,11.43
2018-12-07T04:07:37.424Z,11.47
2018-12-07T04:10:06.693Z,11.41
2018-12-07T04:12:35.904Z,11.36
2018-12-07T04:15:05.794Z,11.25
2018-12-07T04:17:34.927Z,11.25
2018-12-07T04:20:04.302Z,11.28
2018-12-07T04:22:33.492Z,11.41
2018-12-07T04:25:02.886Z,11.45
2018-12-07T04:27:33.651Z,11.44
2018-12-07T04:30:25.918Z,11.46
2018-12-07T04:32:55.101Z,11.43
2018-12-07T04:35:24.403Z,11.46
2018-12-07T04:37:53.599Z,11.46
2018-12-07T04:40:22.853Z,11.46
2018-12-07T04:42:52.109Z,11.50
2018-12-07T04:45:21.428Z,11.52
2018-12-07T04:47:50.799Z,11.53
2018-12-07T04:50:20.062Z,11.49
2018-12-07T04:52:49.330Z,11.54
2018-12-07T04:55:19.117Z,11.51
2018-12-07T04:57:48.359Z,11.46
2018-12-07T05:00:17.853Z,11.50
2018-12-07T05:02:47.245Z,11.50
2018-12-07T05:05:16.357Z,11.47
2018-12-07T05:07:45.544Z,11.49
2018-12-07T05:10:14.861Z,11.56
2018-12-07T05:12:44.153Z,11.53
2018-12-07T05:15:13.891Z,11.41
2018-12-07T05:17:43.413Z,11.53
2018-12-07T05:20:12.656Z,11.52
2018-12-07T05:22:41.911Z,11.60
2018-12-07T05:25:11.077Z,11.65
2018-12-07T05:27:40.189Z,11.66
2018-12-07T05:30:09.418Z,11.68
2018-12-07T05:32:38.905Z,11.54
2018-12-07T05:35:08.145Z,11.55
2018-12-07T05:37:37.365Z,11.62
2018-12-07T05:40:06.884Z,11.66
2018-12-07T05:42:36.013Z,11.76
2018-12-07T05:45:05.334Z,11.89
2018-12-07T05:47:34.524Z,11.80
2018-12-07T05:50:03.884Z,11.65
2018-12-07T05:52:33.191Z,11.64
2018-12-07T05:55:03.088Z,11.66
2018-12-07T05:57:32.493Z,11.62
2018-12-07T06:00:01.637Z,11.64
2018-12-07T06:02:31.129Z,11.76
2018-12-07T06:05:00.300Z,11.73
2018-12-07T06:07:29.442Z,11.83
2018-12-07T06:09:58.594Z,11.75
2018-12-07T06:12:27.753Z,11.75
2018-12-07T06:14:56.937Z,11.63
2018-12-07T06:17:26.259Z,11.62
2018-12-07T06:19:55.555Z,11.65
2018-12-07T06:22:24.811Z,11.59
2018-12-07T06:24:54.017Z,11.65
2018-12-07T06:27:23.174Z,11.58
2018-12-07T06:29:52.800Z,11.64
2018-12-07T06:32:21.877Z,11.65
2018-12-07T06:34:51.186Z,11.55
2018-12-07T06:37:20.265Z,11.66
2018-12-07T06:39:49.449Z,11.66
2018-12-07T06:42:18.569Z,11.67
2018-12-07T06:44:48.301Z,11.52
2018-12-07T06:47:17.420Z,11.52
2018-12-07T06:49:46.617Z,11.59
2018-12-07T06:52:15.680Z,11.63
2018-12-07T06:54:44.857Z,11.59
2018-12-07T06:57:13.944Z,11.55
2018-12-07T06:59:43.137Z,11.55
2018-12-07T07:02:12.391Z,11.53
2018-12-07T07:04:41.960Z,11.55
2018-12-07T07:07:11.181Z,11.55
2018-12-07T07:09:40.304Z,11.59
2018-12-07T07:12:09.580Z,11.43
2018-12-07T07:14:38.757Z,11.45
2018-12-07T07:17:08.063Z,11.37
2018-12-07T07:19:37.762Z,11.51
2018-12-07T07:22:06.961Z,11.45
2018-12-07T07:24:36.333Z,11.48
2018-12-07T07:27:05.653Z,11.44
2018-12-07T07:29:34.753Z,11.50
2018-12-07T07:32:03.949Z,11.53
2018-12-07T07:34:33.081Z,11.50
2018-12-07T07:37:02.276Z,11.57
2018-12-07T07:39:31.532Z,11.62
2018-12-07T07:42:01.004Z,11.60
2018-12-07T07:44:30.177Z,11.43
2018-12-07T07:46:59.407Z,11.42
2018-12-07T07:49:28.581Z,11.43
2018-12-07T07:51:57.808Z,11.43
2018-12-07T07:54:26.906Z,11.44
2018-12-07T07:56:56.581Z,11.45
2018-12-07T07:59:25.736Z,11.44
2018-12-07T08:01:54.861Z,11.54
2018-12-07T08:04:24.063Z,11.48
2018-12-07T08:06:53.315Z,11.44
2018-12-07T08:09:22.830Z,11.45
2018-12-07T08:11:51.982Z,11.58
2018-12-07T08:14:21.228Z,11.61
2018-12-07T08:16:50.446Z,11.68
2018-12-07T08:19:20.092Z,11.71
2018-12-07T08:21:49.381Z,11.67
2018-12-07T08:24:18.633Z,11.87
2018-12-07T08:26:47.977Z,12.01
2018-12-07T08:29:17.144Z,11.85
2018-12-07T08:31:46.376Z,11.85
2018-12-07T08:34:15.555Z,11.88
2018-12-07T08:36:44.787Z,11.97
2018-12-07T08:39:13.956Z,11.92
2018-12-07T08:41:43.426Z,11.95
2018-12-07T08:44:12.654Z,12.16
2018-12-07T08:46:42.120Z,12.34
2018-12-07T08:49:11.381Z,12.48
2018-12-07T08:51:40.605Z,12.61
2018-12-07T08:54:09.904Z,12.73
2018-12-07T08:56:39.122Z,12.87
2018-12-07T08:59:08.278Z,13.14
2018-12-07T09:01:38.127Z,12.96
2018-12-07T09:04:07.470Z,13.13
2018-12-07T09:06:37.004Z,13.14
2018-12-07T09:09:08.656Z,13.31
2018-12-07T09:11:38.016Z,13.34
2018-12-07T09:14:07.157Z,13.39
2018-12-07T09:16:36.724Z,13.23
2018-12-07T09:19:05.829Z,13.16
2018-12-07T09:21:35.013Z,13.09
2018-12-07T09:24:04.188Z,13.24
2018-12-07T09:26:33.329Z,12.95
2018-12-07T09:29:02.958Z,13.09
2018-12-07T09:31:32.109Z,13.20
2018-12-07T09:34:01.397Z,13.13
2018-12-07T09:36:30.691Z,13.30
2018-12-07T09:38:59.959Z,13.39
2018-12-07T09:41:29.176Z,13.45
2018-12-07T09:43:58.294Z,13.40
2018-12-07T09:46:27.708Z,13.04
2018-12-07T09:48:57.364Z,12.94
2018-12-07T09:51:26.596Z,12.85
2018-12-07T09:53:55.786Z,12.67
2018-12-07T09:56:24.977Z,12.61
2018-12-07T09:58:54.143Z,12.68
2018-12-07T10:01:23.689Z,12.55
2018-12-07T10:03:52.911Z,12.62
2018-12-07T10:06:22.169Z,12.58
2018-12-07T10:08:51.367Z,12.67
2018-12-07T10:11:27.139Z,12.60
2018-12-07T10:13:56.312Z,12.55
2018-12-07T10:16:25.416Z,12.52
2018-12-07T10:18:54.718Z,12.45
2018-12-07T10:21:23.872Z,12.52
2018-12-07T10:23:53.084Z,12.58
2018-12-07T10:26:22.248Z,12.63
2018-12-07T10:28:51.550Z,12.58
2018-12-07T10:31:20.852Z,12.59
2018-12-07T10:33:50.720Z,12.57
2018-12-07T10:36:19.836Z,12.69
2018-12-07T10:38:48.947Z,12.72
2018-12-07T10:41:18.216Z,12.65
2018-12-07T10:43:48.002Z,12.63
2018-12-07T10:46:17.312Z,12.62
2018-12-07T10:48:46.441Z,12.69
2018-12-07T10:51:15.732Z,12.72
2018-12-07T10:53:45.010Z,12.58
2018-12-07T10:56:14.446Z,12.49
2018-12-07T10:58:43.646Z,12.28
2018-12-07T11:01:17.976Z,12.48
2018-12-07T11:03:52.413Z,12.62
2018-12-07T11:06:26.748Z,12.43
2018-12-07T11:11:58.804Z,12.61
2018-12-07T11:14:33.152Z,12.86
2018-12-07T11:17:07.597Z,12.85
2018-12-07T11:19:42.176Z,12.75
2018-12-07T11:22:17.084Z,12.91
2018-12-07T11:24:51.729Z,13.01
2018-12-07T11:27:26.351Z,13.03
2018-12-07T11:30:00.717Z,12.99
2018-12-07T11:32:35.329Z,12.99
2018-12-07T11:35:09.882Z,12.80
2018-12-07T11:37:39.152Z,12.50
2018-12-07T11:40:12.560Z,12.64
2018-12-07T11:42:41.787Z,12.56
2018-12-07T11:45:11.343Z,12.93
2018-12-07T11:47:40.680Z,13.40
2018-12-07T11:50:10.696Z,13.62
2018-12-07T11:52:39.926Z,13.61
2018-12-07T11:55:09.121Z,13.49
2018-12-07T11:57:38.364Z,12.98
2018-12-07T12:00:08.785Z,12.96
2018-12-07T12:02:37.997Z,12.75
2018-12-07T12:05:13.936Z,12.95
2018-12-07T12:07:43.150Z,12.82
2018-12-07T12:10:12.353Z,12.88
2018-12-07T12:12:41.515Z,12.75
2018-12-07T12:15:11.078Z,12.64
2018-12-07T12:17:40.200Z,12.64
2018-12-07T12:20:09.928Z,12.69
2018-12-07T12:22:40.776Z,12.50
2018-12-07T12:25:10.034Z,12.38
2018-12-07T12:27:39.244Z,12.42
2018-12-07T12:30:09.012Z,12.38
2018-12-07T12:32:38.456Z,12.48
2018-12-07T12:35:08.268Z,12.74
2018-12-07T12:37:37.806Z,12.69
2018-12-07T12:40:07.094Z,12.74
2018-12-07T12:42:36.312Z,12.86
2018-12-07T12:45:06.241Z,13.02
2018-12-07T12:47:35.709Z,12.86
2018-12-07T12:52:54.990Z,12.45
2018-12-07T12:55:24.480Z,12.46
2018-12-07T12:57:53.708Z,12.25
2018-12-07T13:00:23.004Z,12.13
2018-12-07T13:02:52.136Z,11.97
2018-12-07T13:05:21.692Z,11.80
2018-12-07T13:07:50.916Z,11.89
2018-12-07T13:10:20.894Z,11.96
2018-12-07T13:12:50.563Z,11.96
2018-12-07T13:15:19.768Z,11.68
2018-12-07T13:17:48.982Z,11.48
2018-12-07T13:20:18.846Z,11.48
2018-12-07T13:22:47.990Z,11.39
2018-12-07T13:25:17.141Z,11.13
2018-12-07T13:27:46.390Z,10.82
2018-12-07T13:30:15.663Z,10.72
2018-12-07T13:32:44.788Z,10.51
2018-12-07T13:35:13.993Z,10.34
2018-12-07T13:37:43.293Z,10.26
2018-12-07T13:40:12.598Z,10.26
2018-12-07T13:42:42.405Z,10.26
2018-12-07T13:45:13.196Z,10.29
2018-12-07T13:47:42.798Z,10.36
2018-12-07T13:50:18.008Z,10.42
2018-12-07T13:52:47.763Z,10.53
2018-12-07T13:55:17.829Z,10.54
2018-12-07T13:57:46.964Z,10.48
2018-12-07T14:00:16.345Z,10.50
2018-12-07T14:02:45.680Z,10.47
2018-12-07T14:05:15.663Z,10.47
2018-12-07T14:07:45.289Z,10.52
2018-12-07T14:10:14.585Z,10.54
2018-12-07T14:12:43.803Z,10.52
2018-12-07T14:15:13.799Z,10.56
2018-12-07T14:17:43.166Z,10.61
2018-12-07T14:20:12.607Z,10.61
2018-12-07T14:22:42.343Z,10.67
2018-12-07T14:25:11.701Z,10.68
2018-12-07T14:27:41.556Z,10.71
2018-12-07T14:30:12.140Z,10.95
2018-12-07T14:32:41.605Z,11.01
2018-12-07T14:35:11.221Z,11.08
2018-12-07T14:37:40.596Z,11.12
2018-12-07T14:40:10.245Z,11.19
2018-12-07T14:42:39.648Z,11.22
2018-12-07T14:45:09.258Z,11.09
2018-12-07T14:47:38.674Z,11.00
2018-12-07T14:50:08.389Z,10.84
2018-12-07T14:52:37.873Z,10.70
2018-12-07T14:55:07.476Z,10.67
2018-12-07T14:57:39.206Z,10.53
2018-12-07T15:00:09.516Z,10.59
2018-12-07T15:02:38.905Z,10.49
2018-12-07T15:05:08.652Z,10.47
2018-12-07T15:07:37.907Z,10.40
2018-12-07T15:10:08.424Z,10.25
2018-12-07T15:12:37.800Z,10.18
2018-12-07T15:15:07.962Z,9.94
2018-12-07T15:17:37.264Z,9.98
2018-12-07T15:20:09.071Z,10.10
2018-12-07T15:22:38.395Z,10.00
2018-12-07T15:25:08.168Z,9.99
2018-12-07T15:27:37.469Z,10.06
2018-12-07T15:30:08.640Z,10.13
2018-12-07T15:32:38.423Z,9.95
2018-12-07T15:35:09.354Z,9.95
2018-12-07T15:37:44.989Z,9.97
2018-12-07T15:40:15.295Z,10.14
2018-12-07T15:42:44.744Z,10.09
2018-12-07T15:45:13.988Z,9.94
2018-12-07T15:47:43.577Z,10.20
2018-12-07T15:50:13.476Z,10.30
2018-12-07T15:52:42.874Z,10.38
2018-12-07T15:55:12.422Z,10.26
2018-12-07T15:57:41.724Z,10.25
2018-12-07T16:00:11.770Z,10.25
2018-12-07T16:02:41.458Z,10.38
2018-12-07T16:05:11.451Z,10.40
2018-12-07T16:07:40.886Z,10.46
2018-12-07T16:10:10.453Z,10.46
2018-12-07T16:12:39.650Z,10.42
2018-12-07T16:15:09.413Z,10.46
2018-12-07T16:17:38.832Z,10.55
2018-12-07T16:20:14.045Z,10.53
2018-12-07T16:22:43.463Z,10.54
2018-12-07T16:25:14.717Z,10.59
2018-12-07T16:27:44.756Z,10.65
2018-12-07T16:30:15.298Z,10.68
2018-12-07T16:32:44.975Z,10.59
2018-12-07T16:35:14.594Z,10.57
2018-12-07T16:37:44.696Z,10.60
2018-12-07T16:40:14.355Z,10.62
2018-12-07T16:42:44.345Z,10.66
2018-12-07T16:45:13.701Z,10.65
2018-12-07T16:47:43.336Z,10.63
2018-12-07T16:50:13.128Z,10.66
2018-12-07T16:52:42.589Z,10.61
2018-12-07T16:56:15.340Z,10.66
2018-12-07T16:59:17.017Z,10.69
2018-12-07T17:01:46.412Z,10.76
2018-12-07T17:04:15.943Z,10.76
2018-12-07T17:06:46.261Z,10.70
2018-12-07T17:09:15.837Z,10.74
2018-12-07T17:11:45.129Z,10.72
2018-12-07T17:14:14.520Z,10.69
2018-12-07T17:16:45.117Z,10.68
2018-12-07T17:19:15.485Z,10.70
2018-12-07T17:21:44.629Z,10.64
2018-12-07T17:24:14.126Z,10.66
2018-12-07T17:26:43.794Z,10.64
2018-12-07T17:29:13.708Z,10.63
2018-12-07T17:31:43.067Z,10.61
2018-12-07T17:34:12.608Z,10.63
2018-12-07T17:36:42.359Z,10.65
2018-12-07T17:39:11.764Z,10.66
2018-12-07T17:41:41.916Z,10.55
2018-12-07T17:44:11.719Z,10.55
2018-12-07T17:46:41.416Z,10.49
2018-12-07T17:49:10.887Z,10.48
2018-12-07T17:51:40.324Z,10.56
2018-12-07T17:54:09.523Z,10.55
2018-12-07T17:56:38.942Z,10.51
2018-12-07T17:59:08.532Z,10.49
2018-12-07T18:01:37.668Z,10.53
2018-12-07T18:04:06.876Z,10.38
2018-12-07T18:06:36.882Z,10.17
2018-12-07T18:09:09.397Z,9.89
2018-12-07T18:11:45.352Z,9.66
2018-12-07T18:14:15.367Z,9.57
2018-12-07T18:16:45.398Z,9.45
2018-12-07T18:19:16.220Z,9.45
2018-12-07T18:21:45.381Z,9.40
2018-12-07T18:24:14.742Z,9.45
2018-12-07T18:26:44.156Z,9.43
2018-12-07T18:29:13.518Z,9.67
2018-12-07T18:31:43.256Z,9.77
2018-12-07T18:34:12.540Z,9.76
2018-12-07T18:36:41.821Z,9.91
2018-12-07T18:39:11.339Z,9.88
2018-12-07T18:41:40.634Z,9.90
2018-12-07T18:44:10.298Z,10.03
2018-12-07T18:46:40.328Z,10.02
2018-12-07T18:49:10.466Z,9.99
2018-12-07T18:51:39.920Z,9.93
2018-12-07T18:54:09.528Z,9.98
2018-12-07T18:56:39.163Z,9.96
2018-12-07T18:59:08.306Z,9.89
2018-12-07T19:01:37.680Z,9.90
2018-12-07T19:04:06.836Z,9.99
2018-12-07T19:06:36.535Z,10.04
2018-12-07T19:09:09.781Z,10.03
2018-12-07T19:11:39.234Z,10.10
2018-12-07T19:14:08.510Z,10.17
2018-12-07T19:16:37.768Z,10.15
2018-12-07T19:19:06.976Z,10.12
2018-12-07T19:21:36.071Z,10.05
2018-12-07T19:24:07.456Z,10.10
2018-12-07T19:26:37.352Z,10.16
2018-12-07T19:29:06.720Z,10.15
2018-12-07T19:31:36.350Z,10.05
2018-12-07T19:34:06.025Z,10.01
2018-12-07T19:36:35.880Z,9.89
2018-12-07T19:39:09.579Z,9.75
2018-12-07T19:41:39.065Z,9.77
2018-12-07T19:44:08.609Z,9.79
2018-12-07T19:46:37.920Z,9.80
2018-12-07T19:49:08.202Z,9.84
2018-12-07T19:51:38.354Z,9.89
2018-12-07T19:54:08.112Z,9.86
2018-12-07T19:56:37.863Z,9.92
2018-12-07T19:59:07.683Z,9.83
2018-12-07T20:01:36.957Z,9.82
2018-12-07T20:04:06.168Z,9.90
2018-12-07T20:06:35.647Z,9.91
2018-12-07T20:09:07.941Z,9.73
2018-12-07T20:11:37.543Z,9.60
2018-12-07T20:14:07.459Z,9.39
2018-12-07T20:16:37.223Z,9.34
2018-12-07T20:19:07.303Z,9.19
2018-12-07T20:21:36.589Z,9.03
2018-12-07T20:24:06.120Z,9.09
2018-12-07T20:26:37.928Z,9.01
2018-12-07T20:29:07.755Z,9.04
2018-12-07T20:31:37.465Z,8.99
2018-12-07T20:34:06.612Z,8.98
2018-12-07T20:36:36.308Z,8.95
2018-12-07T20:39:08.861Z,9.15
2018-12-07T20:41:38.093Z,9.06
2018-12-07T20:44:07.395Z,8.87
2018-12-07T20:46:36.764Z,8.69
2018-12-07T20:49:07.162Z,8.59
2018-12-07T20:51:37.071Z,8.38
2018-12-07T20:54:06.522Z,8.15
2018-12-07T20:56:35.912Z,7.95
2018-12-07T20:59:05.812Z,7.87
2018-12-07T21:01:35.931Z,7.75
2018-12-07T21:04:41.523Z,7.65
2018-12-07T21:07:46.882Z,7.34
2018-12-07T21:11:13.350Z,7.17
2018-12-07T21:14:11.394Z,7.15
2018-12-07T21:17:05.636Z,7.08
2018-12-07T21:19:37.172Z,7.07
2018-12-07T21:22:06.770Z,7.00
2018-12-07T21:24:36.649Z,6.94
2018-12-07T21:27:05.952Z,6.83
2018-12-07T21:29:35.764Z,6.90
2018-12-07T21:32:10.474Z,6.73
2018-12-07T21:35:06.049Z,6.68
2018-12-07T21:37:35.279Z,6.73
2018-12-07T21:40:14.998Z,6.85
2018-12-07T21:42:44.414Z,6.99
2018-12-07T21:45:14.045Z,6.94
2018-12-07T21:48:55.303Z,6.99
2018-12-07T21:52:07.063Z,6.88
2018-12-07T21:54:36.551Z,6.92
2018-12-07T21:57:07.201Z,6.94
2018-12-07T21:59:36.893Z,7.05
2018-12-07T22:02:06.634Z,7.11
2018-12-07T22:04:36.041Z,7.29
2018-12-07T22:07:06.201Z,7.21
2018-12-07T22:09:36.319Z,7.25
2018-12-07T22:12:06.854Z,7.26
2018-12-07T22:14:36.102Z,7.26
2018-12-07T22:17:06.136Z,7.32
2018-12-07T22:19:42.029Z,7.34
2018-12-07T22:22:11.524Z,7.36
2018-12-07T22:24:41.200Z,7.31
2018-12-07T22:27:11.355Z,7.32
2018-12-07T22:29:41.160Z,7.32
2018-12-07T22:32:11.235Z,7.36
2018-12-07T22:34:40.681Z,7.36
2018-12-07T22:37:10.333Z,7.38
2018-12-07T22:39:40.404Z,7.39
2018-12-07T22:42:10.211Z,7.43
2018-12-07T22:44:39.924Z,7.38
2018-12-07T22:47:09.787Z,7.33
2018-12-07T22:49:39.450Z,7.28
2018-12-07T22:52:08.608Z,7.21
2018-12-07T22:54:37.897Z,7.14
2018-12-07T22:57:11.145Z,7.16
2018-12-07T22:59:40.441Z,7.20
2018-12-07T23:02:10.030Z,7.18
2018-12-07T23:04:39.280Z,7.14
2018-12-07T23:07:09.337Z,7.07
2018-12-07T23:09:38.536Z,7.09
2018-12-07T23:12:08.047Z,7.13
2018-12-07T23:14:37.177Z,7.13
2018-12-07T23:17:06.349Z,7.14
2018-12-07T23:19:35.457Z,7.16
2018-12-07T23:22:05.426Z,7.14
2018-12-07T23:24:35.028Z,7.05
2018-12-07T23:27:05.164Z,7.09
2018-12-07T23:29:35.427Z,7.10
2018-12-07T23:32:04.960Z,7.12
2018-12-07T23:34:34.199Z,7.09
2018-12-07T23:37:03.720Z,7.06
2018-12-07T23:39:33.081Z,7.08
2018-12-07T23:42:06.292Z,7.05
2018-12-07T23:44:36.901Z,7.09
2018-12-07T23:47:06.512Z,7.10
2018-12-07T23:49:35.679Z,7.12
2018-12-07T23:52:05.272Z,7.05
2018-12-07T23:54:34.392Z,6.97
2018-12-07T23:57:03.552Z,6.96
2018-12-07T23:59:32.620Z,6.92
